sensor_id;sensor_type;location;lat;lon;timestamp;P1;durP1;ratioP1;P2;durP2;ratioP2
9904;SDS011;4991;43.566;27.820;2022-10-26T00:02:08;9.90;;;5.57;;
9904;SDS011;4991;43.566;27.820;2022-10-26T00:04:34;10.00;;;5.47;;
9904;SDS011;4991;43.566;27.820;2022-10-26T00:06:59;12.67;;;5.47;;
9904;SDS011;4991;43.566;27.820;2022-10-26T00:09:25;9.50;;;5.10;;
9904;SDS011;4991;43.566;27.820;2022-10-26T00:11:51;8.97;;;4.93;;
9904;SDS011;4991;43.566;27.820;2022-10-26T00:14:17;13.33;;;5.30;;
9904;SDS011;4991;43.566;27.820;2022-10-26T00:16:43;16.23;;;5.03;;
9904;SDS011;4991;43.566;27.820;2022-10-26T00:19:08;9.37;;;5.70;;
9904;SDS011;4991;43.566;27.820;2022-10-26T00:21:34;10.53;;;4.43;;
9904;SDS011;4991;43.566;27.820;2022-10-26T00:24:00;9.60;;;4.93;;
9904;SDS011;4991;43.566;27.820;2022-10-26T00:26:25;9.93;;;4.70;;
9904;SDS011;4991;43.566;27.820;2022-10-26T00:28:54;9.10;;;5.47;;
9904;SDS011;4991;43.566;27.820;2022-10-26T00:31:21;7.70;;;5.03;;
9904;SDS011;4991;43.566;27.820;2022-10-26T00:33:46;12.83;;;5.40;;
9904;SDS011;4991;43.566;27.820;2022-10-26T00:36:15;9.83;;;5.23;;
9904;SDS011;4991;43.566;27.820;2022-10-26T00:38:47;8.23;;;5.13;;
9904;SDS011;4991;43.566;27.820;2022-10-26T00:41:17;11.90;;;4.47;;
9904;SDS011;4991;43.566;27.820;2022-10-26T00:43:45;8.90;;;5.17;;
9904;SDS011;4991;43.566;27.820;2022-10-26T00:49:13;10.40;;;6.10;;
9904;SDS011;4991;43.566;27.820;2022-10-26T00:51:49;14.47;;;6.70;;
9904;SDS011;4991;43.566;27.820;2022-10-26T00:54:18;22.43;;;6.67;;
9904;SDS011;4991;43.566;27.820;2022-10-26T00:56:45;13.93;;;6.77;;
9904;SDS011;4991;43.566;27.820;2022-10-26T00:59:13;12.77;;;6.10;;
9904;SDS011;4991;43.566;27.820;2022-10-26T01:01:42;10.30;;;5.73;;
9904;SDS011;4991;43.566;27.820;2022-10-26T01:04:10;14.97;;;6.33;;
9904;SDS011;4991;43.566;27.820;2022-10-26T01:06:37;13.07;;;6.43;;
9904;SDS011;4991;43.566;27.820;2022-10-26T01:09:05;10.63;;;7.17;;
9904;SDS011;4991;43.566;27.820;2022-10-26T01:11:31;10.70;;;6.63;;
9904;SDS011;4991;43.566;27.820;2022-10-26T01:13:57;14.33;;;6.80;;
9904;SDS011;4991;43.566;27.820;2022-10-26T01:21:57;16.10;;;7.03;;
9904;SDS011;4991;43.566;27.820;2022-10-26T01:32:09;12.63;;;7.27;;
9904;SDS011;4991;43.566;27.820;2022-10-26T01:34:54;14.93;;;8.10;;
9904;SDS011;4991;43.566;27.820;2022-10-26T01:37:28;14.10;;;7.37;;
9904;SDS011;4991;43.566;27.820;2022-10-26T01:42:48;19.00;;;8.70;;
9904;SDS011;4991;43.566;27.820;2022-10-26T01:45:17;17.27;;;8.30;;
9904;SDS011;4991;43.566;27.820;2022-10-26T01:47:43;14.43;;;8.90;;
9904;SDS011;4991;43.566;27.820;2022-10-26T01:50:12;19.20;;;9.03;;
9904;SDS011;4991;43.566;27.820;2022-10-26T01:52:38;14.80;;;9.50;;
9904;SDS011;4991;43.566;27.820;2022-10-26T02:01:32;21.67;;;10.23;;
9904;SDS011;4991;43.566;27.820;2022-10-26T02:10:19;18.47;;;9.80;;
9904;SDS011;4991;43.566;27.820;2022-10-26T02:13:32;16.13;;;9.40;;
9904;SDS011;4991;43.566;27.820;2022-10-26T02:19:21;16.53;;;9.03;;
9904;SDS011;4991;43.566;27.820;2022-10-26T02:22:04;15.33;;;9.73;;
9904;SDS011;4991;43.566;27.820;2022-10-26T02:24:32;14.00;;;9.00;;
9904;SDS011;4991;43.566;27.820;2022-10-26T02:27:00;15.17;;;8.63;;
9904;SDS011;4991;43.566;27.820;2022-10-26T02:29:29;15.47;;;8.77;;
9904;SDS011;4991;43.566;27.820;2022-10-26T02:31:57;11.73;;;8.83;;
9904;SDS011;4991;43.566;27.820;2022-10-26T02:34:25;18.90;;;8.37;;
9904;SDS011;4991;43.566;27.820;2022-10-26T02:36:55;13.60;;;8.33;;
9904;SDS011;4991;43.566;27.820;2022-10-26T02:39:23;15.50;;;9.17;;
9904;SDS011;4991;43.566;27.820;2022-10-26T02:41:52;13.20;;;8.97;;
9904;SDS011;4991;43.566;27.820;2022-10-26T02:46:46;13.80;;;8.10;;
9904;SDS011;4991;43.566;27.820;2022-10-26T02:49:12;12.80;;;9.07;;
9904;SDS011;4991;43.566;27.820;2022-10-26T02:51:39;13.43;;;8.93;;
9904;SDS011;4991;43.566;27.820;2022-10-26T02:57:00;13.53;;;8.20;;
9904;SDS011;4991;43.566;27.820;2022-10-26T02:59:33;16.07;;;8.97;;
9904;SDS011;4991;43.566;27.820;2022-10-26T03:02:02;18.33;;;9.37;;
9904;SDS011;4991;43.566;27.820;2022-10-26T03:04:29;21.57;;;9.40;;
9904;SDS011;4991;43.566;27.820;2022-10-26T03:06:56;12.70;;;9.20;;
9904;SDS011;4991;43.566;27.820;2022-10-26T03:09:22;14.57;;;9.30;;
9904;SDS011;4991;43.566;27.820;2022-10-26T03:11:48;13.70;;;9.00;;
9904;SDS011;4991;43.566;27.820;2022-10-26T03:14:14;13.63;;;9.23;;
9904;SDS011;4991;43.566;27.820;2022-10-26T03:16:40;16.00;;;9.70;;
9904;SDS011;4991;43.566;27.820;2022-10-26T03:19:05;12.60;;;9.77;;
9904;SDS011;4991;43.566;27.820;2022-10-26T03:21:31;16.30;;;10.13;;
9904;SDS011;4991;43.566;27.820;2022-10-26T03:23:57;13.17;;;9.57;;
9904;SDS011;4991;43.566;27.820;2022-10-26T03:26:22;16.60;;;10.10;;
9904;SDS011;4991;43.566;27.820;2022-10-26T03:28:48;17.97;;;9.07;;
9904;SDS011;4991;43.566;27.820;2022-10-26T03:31:13;16.60;;;9.30;;
9904;SDS011;4991;43.566;27.820;2022-10-26T03:33:39;14.57;;;9.07;;
9904;SDS011;4991;43.566;27.820;2022-10-26T03:36:05;16.80;;;9.57;;
9904;SDS011;4991;43.566;27.820;2022-10-26T03:38:31;14.97;;;8.80;;
9904;SDS011;4991;43.566;27.820;2022-10-26T03:40:57;15.10;;;9.30;;
9904;SDS011;4991;43.566;27.820;2022-10-26T03:43:22;15.27;;;9.23;;
9904;SDS011;4991;43.566;27.820;2022-10-26T03:45:51;14.83;;;9.50;;
9904;SDS011;4991;43.566;27.820;2022-10-26T03:48:17;16.27;;;9.63;;
9904;SDS011;4991;43.566;27.820;2022-10-26T03:50:43;20.57;;;9.87;;
9904;SDS011;4991;43.566;27.820;2022-10-26T03:53:09;15.70;;;9.67;;
9904;SDS011;4991;43.566;27.820;2022-10-26T03:55:34;12.63;;;8.83;;
9904;SDS011;4991;43.566;27.820;2022-10-26T03:58:00;14.30;;;9.03;;
9904;SDS011;4991;43.566;27.820;2022-10-26T04:00:26;17.37;;;9.20;;
9904;SDS011;4991;43.566;27.820;2022-10-26T04:02:55;14.43;;;8.23;;
9904;SDS011;4991;43.566;27.820;2022-10-26T04:05:26;11.87;;;8.90;;
9904;SDS011;4991;43.566;27.820;2022-10-26T04:07:57;13.67;;;8.87;;
9904;SDS011;4991;43.566;27.820;2022-10-26T04:10:25;12.80;;;8.83;;
9904;SDS011;4991;43.566;27.820;2022-10-26T04:12:52;16.37;;;9.50;;
9904;SDS011;4991;43.566;27.820;2022-10-26T04:15:18;13.60;;;8.70;;
9904;SDS011;4991;43.566;27.820;2022-10-26T04:17:44;16.83;;;10.67;;
9904;SDS011;4991;43.566;27.820;2022-10-26T04:20:10;20.80;;;9.77;;
9904;SDS011;4991;43.566;27.820;2022-10-26T04:22:35;17.90;;;9.73;;
9904;SDS011;4991;43.566;27.820;2022-10-26T04:25:02;17.37;;;9.57;;
9904;SDS011;4991;43.566;27.820;2022-10-26T04:27:29;13.10;;;8.57;;
9904;SDS011;4991;43.566;27.820;2022-10-26T04:29:54;13.47;;;8.47;;
9904;SDS011;4991;43.566;27.820;2022-10-26T04:32:20;16.07;;;9.07;;
9904;SDS011;4991;43.566;27.820;2022-10-26T04:34:46;13.10;;;8.77;;
9904;SDS011;4991;43.566;27.820;2022-10-26T04:37:11;13.37;;;8.63;;
9904;SDS011;4991;43.566;27.820;2022-10-26T04:39:37;15.30;;;9.13;;
9904;SDS011;4991;43.566;27.820;2022-10-26T04:42:02;13.60;;;9.13;;
9904;SDS011;4991;43.566;27.820;2022-10-26T04:44:28;12.17;;;8.43;;
9904;SDS011;4991;43.566;27.820;2022-10-26T04:46:54;13.13;;;8.90;;
9904;SDS011;4991;43.566;27.820;2022-10-26T04:49:21;13.27;;;8.60;;
9904;SDS011;4991;43.566;27.820;2022-10-26T04:51:47;12.47;;;8.30;;
9904;SDS011;4991;43.566;27.820;2022-10-26T04:54:12;11.23;;;7.67;;
9904;SDS011;4991;43.566;27.820;2022-10-26T04:56:38;12.07;;;9.00;;
9904;SDS011;4991;43.566;27.820;2022-10-26T04:59:05;15.90;;;9.17;;
9904;SDS011;4991;43.566;27.820;2022-10-26T05:01:31;13.93;;;8.77;;
9904;SDS011;4991;43.566;27.820;2022-10-26T05:03:57;19.07;;;8.93;;
9904;SDS011;4991;43.566;27.820;2022-10-26T05:06:22;14.83;;;8.53;;
9904;SDS011;4991;43.566;27.820;2022-10-26T05:08:48;14.30;;;8.23;;
9904;SDS011;4991;43.566;27.820;2022-10-26T05:11:14;9.83;;;7.50;;
9904;SDS011;4991;43.566;27.820;2022-10-26T05:13:40;12.73;;;8.73;;
9904;SDS011;4991;43.566;27.820;2022-10-26T05:16:06;12.37;;;9.33;;
9904;SDS011;4991;43.566;27.820;2022-10-26T05:18:32;11.60;;;9.73;;
9904;SDS011;4991;43.566;27.820;2022-10-26T05:20:57;14.93;;;7.93;;
9904;SDS011;4991;43.566;27.820;2022-10-26T05:23:23;13.40;;;8.83;;
9904;SDS011;4991;43.566;27.820;2022-10-26T05:25:49;13.67;;;8.90;;
9904;SDS011;4991;43.566;27.820;2022-10-26T05:28:15;14.30;;;8.50;;
9904;SDS011;4991;43.566;27.820;2022-10-26T05:30:42;13.60;;;8.13;;
9904;SDS011;4991;43.566;27.820;2022-10-26T05:33:09;10.93;;;7.87;;
9904;SDS011;4991;43.566;27.820;2022-10-26T05:35:36;15.43;;;8.23;;
9904;SDS011;4991;43.566;27.820;2022-10-26T05:38:06;11.43;;;7.40;;
9904;SDS011;4991;43.566;27.820;2022-10-26T05:40:33;12.70;;;7.90;;
9904;SDS011;4991;43.566;27.820;2022-10-26T05:42:59;10.70;;;7.70;;
9904;SDS011;4991;43.566;27.820;2022-10-26T05:45:25;9.50;;;7.80;;
9904;SDS011;4991;43.566;27.820;2022-10-26T05:47:51;11.43;;;7.57;;
9904;SDS011;4991;43.566;27.820;2022-10-26T05:50:16;15.03;;;8.17;;
9904;SDS011;4991;43.566;27.820;2022-10-26T05:52:43;11.87;;;7.43;;
9904;SDS011;4991;43.566;27.820;2022-10-26T05:55:10;9.93;;;7.50;;
9904;SDS011;4991;43.566;27.820;2022-10-26T05:57:38;11.57;;;7.70;;
9904;SDS011;4991;43.566;27.820;2022-10-26T06:00:08;8.90;;;6.87;;
9904;SDS011;4991;43.566;27.820;2022-10-26T06:02:43;10.47;;;7.23;;
9904;SDS011;4991;43.566;27.820;2022-10-26T06:05:27;11.43;;;6.60;;
9904;SDS011;4991;43.566;27.820;2022-10-26T06:07:57;11.17;;;6.73;;
9904;SDS011;4991;43.566;27.820;2022-10-26T06:10:23;8.47;;;6.33;;
9904;SDS011;4991;43.566;27.820;2022-10-26T06:12:49;12.33;;;6.67;;
9904;SDS011;4991;43.566;27.820;2022-10-26T06:15:19;9.00;;;6.97;;
9904;SDS011;4991;43.566;27.820;2022-10-26T06:23:15;10.70;;;6.73;;
9904;SDS011;4991;43.566;27.820;2022-10-26T06:26:06;11.47;;;7.47;;
9904;SDS011;4991;43.566;27.820;2022-10-26T06:29:05;13.00;;;7.33;;
9904;SDS011;4991;43.566;27.820;2022-10-26T06:31:27;7.47;;;6.57;;
9904;SDS011;4991;43.566;27.820;2022-10-26T06:33:55;9.37;;;7.03;;
9904;SDS011;4991;43.566;27.820;2022-10-26T06:36:24;10.97;;;7.50;;
9904;SDS011;4991;43.566;27.820;2022-10-26T06:38:55;9.27;;;6.47;;
9904;SDS011;4991;43.566;27.820;2022-10-26T06:41:22;13.27;;;6.80;;
9904;SDS011;4991;43.566;27.820;2022-10-26T06:43:49;9.43;;;6.30;;
9904;SDS011;4991;43.566;27.820;2022-10-26T06:52:00;11.33;;;7.23;;
9904;SDS011;4991;43.566;27.820;2022-10-26T06:57:17;7.83;;;6.07;;
9904;SDS011;4991;43.566;27.820;2022-10-26T07:02:27;9.57;;;6.00;;
9904;SDS011;4991;43.566;27.820;2022-10-26T07:04:52;7.37;;;6.23;;
9904;SDS011;4991;43.566;27.820;2022-10-26T07:07:22;11.27;;;5.90;;
9904;SDS011;4991;43.566;27.820;2022-10-26T07:09:51;11.00;;;5.93;;
9904;SDS011;4991;43.566;27.820;2022-10-26T07:12:16;8.70;;;6.27;;
9904;SDS011;4991;43.566;27.820;2022-10-26T07:14:42;9.87;;;6.40;;
9904;SDS011;4991;43.566;27.820;2022-10-26T07:17:08;11.57;;;6.87;;
9904;SDS011;4991;43.566;27.820;2022-10-26T07:19:35;6.70;;;5.83;;
9904;SDS011;4991;43.566;27.820;2022-10-26T07:22:01;8.27;;;6.20;;
9904;SDS011;4991;43.566;27.820;2022-10-26T07:24:27;8.00;;;5.33;;
9904;SDS011;4991;43.566;27.820;2022-10-26T07:26:54;6.37;;;5.37;;
9904;SDS011;4991;43.566;27.820;2022-10-26T07:29:23;6.80;;;5.20;;
9904;SDS011;4991;43.566;27.820;2022-10-26T07:31:50;9.23;;;5.97;;
9904;SDS011;4991;43.566;27.820;2022-10-26T07:34:16;9.37;;;6.03;;
9904;SDS011;4991;43.566;27.820;2022-10-26T07:36:42;9.03;;;5.33;;
9904;SDS011;4991;43.566;27.820;2022-10-26T07:39:08;9.23;;;6.63;;
9904;SDS011;4991;43.566;27.820;2022-10-26T07:41:34;8.63;;;6.30;;
9904;SDS011;4991;43.566;27.820;2022-10-26T07:44:00;6.77;;;4.53;;
9904;SDS011;4991;43.566;27.820;2022-10-26T07:46:25;6.77;;;4.63;;
9904;SDS011;4991;43.566;27.820;2022-10-26T07:48:51;4.53;;;4.07;;
9904;SDS011;4991;43.566;27.820;2022-10-26T07:51:17;7.80;;;4.00;;
9904;SDS011;4991;43.566;27.820;2022-10-26T07:53:43;5.93;;;4.30;;
9904;SDS011;4991;43.566;27.820;2022-10-26T07:56:09;8.40;;;4.10;;
9904;SDS011;4991;43.566;27.820;2022-10-26T07:58:35;5.13;;;4.03;;
9904;SDS011;4991;43.566;27.820;2022-10-26T08:01:07;6.80;;;4.87;;
9904;SDS011;4991;43.566;27.820;2022-10-26T08:03:36;4.67;;;4.07;;
9904;SDS011;4991;43.566;27.820;2022-10-26T08:06:02;6.57;;;3.77;;
9904;SDS011;4991;43.566;27.820;2022-10-26T08:08:29;6.03;;;4.50;;
9904;SDS011;4991;43.566;27.820;2022-10-26T08:10:55;12.47;;;4.67;;
9904;SDS011;4991;43.566;27.820;2022-10-26T08:13:22;5.73;;;4.13;;
9904;SDS011;4991;43.566;27.820;2022-10-26T08:15:47;5.67;;;3.80;;
9904;SDS011;4991;43.566;27.820;2022-10-26T08:18:14;5.97;;;4.03;;
9904;SDS011;4991;43.566;27.820;2022-10-26T08:20:40;7.50;;;3.50;;
9904;SDS011;4991;43.566;27.820;2022-10-26T08:23:05;5.37;;;4.00;;
9904;SDS011;4991;43.566;27.820;2022-10-26T08:25:32;5.67;;;3.97;;
9904;SDS011;4991;43.566;27.820;2022-10-26T08:28:02;5.20;;;3.77;;
9904;SDS011;4991;43.566;27.820;2022-10-26T08:30:31;5.30;;;3.90;;
9904;SDS011;4991;43.566;27.820;2022-10-26T08:33:00;6.67;;;4.17;;
9904;SDS011;4991;43.566;27.820;2022-10-26T08:35:28;9.10;;;3.63;;
9904;SDS011;4991;43.566;27.820;2022-10-26T08:37:54;5.73;;;3.93;;
9904;SDS011;4991;43.566;27.820;2022-10-26T08:40:21;4.07;;;3.53;;
9904;SDS011;4991;43.566;27.820;2022-10-26T08:42:51;6.17;;;3.47;;
9904;SDS011;4991;43.566;27.820;2022-10-26T08:45:34;4.37;;;3.30;;
9904;SDS011;4991;43.566;27.820;2022-10-26T08:48:16;5.07;;;3.20;;
9904;SDS011;4991;43.566;27.820;2022-10-26T08:50:53;5.43;;;3.37;;
9904;SDS011;4991;43.566;27.820;2022-10-26T08:53:26;7.00;;;3.70;;
9904;SDS011;4991;43.566;27.820;2022-10-26T08:56:16;5.87;;;3.80;;
9904;SDS011;4991;43.566;27.820;2022-10-26T08:58:54;4.73;;;3.73;;
9904;SDS011;4991;43.566;27.820;2022-10-26T09:01:33;4.47;;;3.80;;
9904;SDS011;4991;43.566;27.820;2022-10-26T09:03:59;5.17;;;3.47;;
9904;SDS011;4991;43.566;27.820;2022-10-26T09:17:30;4.53;;;3.63;;
9904;SDS011;4991;43.566;27.820;2022-10-26T09:25:37;4.80;;;3.53;;
9904;SDS011;4991;43.566;27.820;2022-10-26T09:28:04;4.72;;;3.50;;
9904;SDS011;4991;43.566;27.820;2022-10-26T09:30:42;4.80;;;3.53;;
9904;SDS011;4991;43.566;27.820;2022-10-26T09:33:16;8.00;;;4.05;;
9904;SDS011;4991;43.566;27.820;2022-10-26T09:43:20;3.65;;;3.33;;
9904;SDS011;4991;43.566;27.820;2022-10-26T09:45:52;5.35;;;3.47;;
9904;SDS011;4991;43.566;27.820;2022-10-26T09:48:26;6.00;;;3.58;;
9904;SDS011;4991;43.566;27.820;2022-10-26T09:51:08;6.43;;;3.80;;
9904;SDS011;4991;43.566;27.820;2022-10-26T09:53:35;5.93;;;3.30;;
9904;SDS011;4991;43.566;27.820;2022-10-26T09:58:35;2.78;;;2.50;;
9904;SDS011;4991;43.566;27.820;2022-10-26T10:01:15;4.28;;;2.97;;
9904;SDS011;4991;43.566;27.820;2022-10-26T10:06:38;5.07;;;3.15;;
9904;SDS011;4991;43.566;27.820;2022-10-26T10:09:15;3.50;;;2.70;;
9904;SDS011;4991;43.566;27.820;2022-10-26T10:12:15;3.72;;;2.92;;
9904;SDS011;4991;43.566;27.820;2022-10-26T10:14:53;4.32;;;2.90;;
9904;SDS011;4991;43.566;27.820;2022-10-26T10:17:21;4.47;;;2.80;;
9904;SDS011;4991;43.566;27.820;2022-10-26T10:19:48;3.10;;;2.80;;
9904;SDS011;4991;43.566;27.820;2022-10-26T10:24:40;3.92;;;2.78;;
9904;SDS011;4991;43.566;27.820;2022-10-26T10:27:17;4.13;;;3.42;;
9904;SDS011;4991;43.566;27.820;2022-10-26T10:29:43;7.07;;;3.60;;
9904;SDS011;4991;43.566;27.820;2022-10-26T10:35:48;4.70;;;2.92;;
9904;SDS011;4991;43.566;27.820;2022-10-26T10:38:16;6.43;;;3.13;;
9904;SDS011;4991;43.566;27.820;2022-10-26T10:40:56;3.33;;;2.47;;
9904;SDS011;4991;43.566;27.820;2022-10-26T10:43:24;3.45;;;2.78;;
9904;SDS011;4991;43.566;27.820;2022-10-26T10:45:52;3.40;;;2.95;;
9904;SDS011;4991;43.566;27.820;2022-10-26T10:48:21;4.50;;;2.90;;
9904;SDS011;4991;43.566;27.820;2022-10-26T10:50:51;3.63;;;2.90;;
9904;SDS011;4991;43.566;27.820;2022-10-26T10:53:21;6.97;;;3.05;;
9904;SDS011;4991;43.566;27.820;2022-10-26T10:55:56;6.80;;;2.88;;
9904;SDS011;4991;43.566;27.820;2022-10-26T10:58:48;3.75;;;3.20;;
9904;SDS011;4991;43.566;27.820;2022-10-26T11:01:21;4.68;;;3.28;;
9904;SDS011;4991;43.566;27.820;2022-10-26T11:04:21;3.33;;;3.00;;
9904;SDS011;4991;43.566;27.820;2022-10-26T11:06:39;3.42;;;2.30;;
9904;SDS011;4991;43.566;27.820;2022-10-26T11:09:07;3.83;;;2.45;;
9904;SDS011;4991;43.566;27.820;2022-10-26T11:14:15;4.47;;;2.55;;
9904;SDS011;4991;43.566;27.820;2022-10-26T11:16:58;2.83;;;2.25;;
9904;SDS011;4991;43.566;27.820;2022-10-26T11:19:38;5.22;;;3.10;;
9904;SDS011;4991;43.566;27.820;2022-10-26T11:22:11;5.05;;;2.85;;
9904;SDS011;4991;43.566;27.820;2022-10-26T11:24:46;3.45;;;2.08;;
9904;SDS011;4991;43.566;27.820;2022-10-26T11:27:16;4.25;;;2.50;;
9904;SDS011;4991;43.566;27.820;2022-10-26T11:29:50;4.03;;;2.42;;
9904;SDS011;4991;43.566;27.820;2022-10-26T11:32:26;3.22;;;2.67;;
9904;SDS011;4991;43.566;27.820;2022-10-26T11:35:10;4.10;;;2.50;;
9904;SDS011;4991;43.566;27.820;2022-10-26T11:45:43;3.65;;;2.47;;
9904;SDS011;4991;43.566;27.820;2022-10-26T11:48:23;5.43;;;2.58;;
9904;SDS011;4991;43.566;27.820;2022-10-26T11:50:56;2.53;;;2.20;;
9904;SDS011;4991;43.566;27.820;2022-10-26T11:53:25;4.72;;;2.40;;
9904;SDS011;4991;43.566;27.820;2022-10-26T11:55:55;3.88;;;2.28;;
9904;SDS011;4991;43.566;27.820;2022-10-26T11:58:22;5.75;;;2.78;;
9904;SDS011;4991;43.566;27.820;2022-10-26T12:01:09;3.70;;;2.40;;
9904;SDS011;4991;43.566;27.820;2022-10-26T12:03:45;6.38;;;2.75;;
9904;SDS011;4991;43.566;27.820;2022-10-26T12:06:14;3.67;;;2.40;;
9904;SDS011;4991;43.566;27.820;2022-10-26T12:08:50;4.57;;;2.75;;
9904;SDS011;4991;43.566;27.820;2022-10-26T12:14:14;2.88;;;2.40;;
9904;SDS011;4991;43.566;27.820;2022-10-26T12:17:01;3.63;;;2.90;;
9904;SDS011;4991;43.566;27.820;2022-10-26T12:23:07;3.78;;;2.95;;
9904;SDS011;4991;43.566;27.820;2022-10-26T12:25:35;4.80;;;3.00;;
9904;SDS011;4991;43.566;27.820;2022-10-26T12:28:00;4.07;;;2.97;;
9904;SDS011;4991;43.566;27.820;2022-10-26T12:30:27;4.13;;;2.80;;
9904;SDS011;4991;43.566;27.820;2022-10-26T12:32:56;3.17;;;2.83;;
9904;SDS011;4991;43.566;27.820;2022-10-26T12:35:32;4.47;;;3.03;;
9904;SDS011;4991;43.566;27.820;2022-10-26T12:37:58;3.55;;;2.85;;
9904;SDS011;4991;43.566;27.820;2022-10-26T12:42:57;3.72;;;2.67;;
9904;SDS011;4991;43.566;27.820;2022-10-26T12:45:43;4.10;;;2.67;;
9904;SDS011;4991;43.566;27.820;2022-10-26T12:48:23;3.53;;;2.33;;
9904;SDS011;4991;43.566;27.820;2022-10-26T12:56:54;3.92;;;2.40;;
9904;SDS011;4991;43.566;27.820;2022-10-26T13:07:37;5.28;;;2.97;;
9904;SDS011;4991;43.566;27.820;2022-10-26T13:10:06;6.10;;;2.72;;
9904;SDS011;4991;43.566;27.820;2022-10-26T13:12:57;7.22;;;2.60;;
9904;SDS011;4991;43.566;27.820;2022-10-26T13:15:28;3.70;;;2.60;;
9904;SDS011;4991;43.566;27.820;2022-10-26T13:20:31;4.65;;;2.40;;
9904;SDS011;4991;43.566;27.820;2022-10-26T13:23:00;3.47;;;2.88;;
9904;SDS011;4991;43.566;27.820;2022-10-26T13:25:28;4.78;;;2.70;;
9904;SDS011;4991;43.566;27.820;2022-10-26T13:27:59;3.10;;;2.78;;
9904;SDS011;4991;43.566;27.820;2022-10-26T13:30:45;4.80;;;2.80;;
9904;SDS011;4991;43.566;27.820;2022-10-26T13:33:14;2.60;;;2.40;;
9904;SDS011;4991;43.566;27.820;2022-10-26T13:35:44;4.50;;;2.72;;
9904;SDS011;4991;43.566;27.820;2022-10-26T13:38:11;4.32;;;2.80;;
9904;SDS011;4991;43.566;27.820;2022-10-26T13:40:41;11.85;;;10.65;;
9904;SDS011;4991;43.566;27.820;2022-10-26T13:43:10;6.80;;;5.13;;
9904;SDS011;4991;43.566;27.820;2022-10-26T13:45:54;5.72;;;3.20;;
9904;SDS011;4991;43.566;27.820;2022-10-26T13:48:30;4.25;;;3.20;;
9904;SDS011;4991;43.566;27.820;2022-10-26T13:51:06;6.13;;;3.08;;
9904;SDS011;4991;43.566;27.820;2022-10-26T13:53:41;4.40;;;3.08;;
9904;SDS011;4991;43.566;27.820;2022-10-26T13:56:23;6.13;;;3.15;;
9904;SDS011;4991;43.566;27.820;2022-10-26T13:59:07;7.38;;;2.80;;
9904;SDS011;4991;43.566;27.820;2022-10-26T14:01:35;5.30;;;3.80;;
9904;SDS011;4991;43.566;27.820;2022-10-26T14:04:14;5.50;;;3.20;;
9904;SDS011;4991;43.566;27.820;2022-10-26T14:06:50;4.60;;;3.58;;
9904;SDS011;4991;43.566;27.820;2022-10-26T14:09:18;7.57;;;4.95;;
9904;SDS011;4991;43.566;27.820;2022-10-26T14:11:47;9.20;;;4.40;;
9904;SDS011;4991;43.566;27.820;2022-10-26T14:14:19;8.38;;;3.88;;
9904;SDS011;4991;43.566;27.820;2022-10-26T14:16:48;4.38;;;3.30;;
9904;SDS011;4991;43.566;27.820;2022-10-26T14:19:16;7.68;;;3.60;;
9904;SDS011;4991;43.566;27.820;2022-10-26T14:21:53;5.57;;;3.72;;
9904;SDS011;4991;43.566;27.820;2022-10-26T14:24:26;4.80;;;3.78;;
9904;SDS011;4991;43.566;27.820;2022-10-26T14:26:57;5.85;;;3.80;;
9904;SDS011;4991;43.566;27.820;2022-10-26T14:29:25;6.28;;;4.70;;
9904;SDS011;4991;43.566;27.820;2022-10-26T14:31:52;5.60;;;4.72;;
9904;SDS011;4991;43.566;27.820;2022-10-26T14:34:19;6.28;;;4.82;;
9904;SDS011;4991;43.566;27.820;2022-10-26T14:36:49;13.93;;;6.40;;
9904;SDS011;4991;43.566;27.820;2022-10-26T14:39:32;11.38;;;6.32;;
9904;SDS011;4991;43.566;27.820;2022-10-26T14:44:49;9.98;;;5.40;;
9904;SDS011;4991;43.566;27.820;2022-10-26T14:47:24;8.65;;;4.80;;
9904;SDS011;4991;43.566;27.820;2022-10-26T14:49:52;9.63;;;4.53;;
9904;SDS011;4991;43.566;27.820;2022-10-26T14:52:22;8.30;;;4.90;;
9904;SDS011;4991;43.566;27.820;2022-10-26T14:54:59;9.33;;;4.53;;
9904;SDS011;4991;43.566;27.820;2022-10-26T14:57:37;10.83;;;5.70;;
9904;SDS011;4991;43.566;27.820;2022-10-26T15:00:25;12.53;;;6.03;;
9904;SDS011;4991;43.566;27.820;2022-10-26T15:02:51;12.30;;;6.57;;
9904;SDS011;4991;43.566;27.820;2022-10-26T15:05:25;12.90;;;4.87;;
9904;SDS011;4991;43.566;27.820;2022-10-26T15:07:54;10.83;;;5.40;;
9904;SDS011;4991;43.566;27.820;2022-10-26T15:13:20;7.30;;;3.70;;
9904;SDS011;4991;43.566;27.820;2022-10-26T15:16:17;6.53;;;3.73;;
9904;SDS011;4991;43.566;27.820;2022-10-26T15:18:43;9.53;;;3.30;;
9904;SDS011;4991;43.566;27.820;2022-10-26T15:21:20;6.03;;;4.13;;
9904;SDS011;4991;43.566;27.820;2022-10-26T15:24:26;6.27;;;3.60;;
9904;SDS011;4991;43.566;27.820;2022-10-26T15:26:56;10.77;;;4.37;;
9904;SDS011;4991;43.566;27.820;2022-10-26T15:32:16;13.17;;;5.70;;
9904;SDS011;4991;43.566;27.820;2022-10-26T15:37:47;15.63;;;5.83;;
9904;SDS011;4991;43.566;27.820;2022-10-26T15:40:14;13.10;;;5.20;;
9904;SDS011;4991;43.566;27.820;2022-10-26T15:42:40;10.43;;;5.90;;
9904;SDS011;4991;43.566;27.820;2022-10-26T15:45:19;13.00;;;6.23;;
9904;SDS011;4991;43.566;27.820;2022-10-26T15:47:47;14.43;;;5.80;;
9904;SDS011;4991;43.566;27.820;2022-10-26T15:50:17;17.40;;;7.60;;
9904;SDS011;4991;43.566;27.820;2022-10-26T15:52:47;11.83;;;6.03;;
9904;SDS011;4991;43.566;27.820;2022-10-26T15:55:14;16.33;;;7.03;;
9904;SDS011;4991;43.566;27.820;2022-10-26T15:57:40;28.23;;;7.53;;
9904;SDS011;4991;43.566;27.820;2022-10-26T16:00:06;19.33;;;7.33;;
9904;SDS011;4991;43.566;27.820;2022-10-26T16:02:37;14.50;;;6.30;;
9904;SDS011;4991;43.566;27.820;2022-10-26T16:05:07;16.70;;;7.30;;
9904;SDS011;4991;43.566;27.820;2022-10-26T16:07:33;12.00;;;6.87;;
9904;SDS011;4991;43.566;27.820;2022-10-26T16:09:59;12.50;;;7.10;;
9904;SDS011;4991;43.566;27.820;2022-10-26T16:12:25;17.77;;;7.17;;
9904;SDS011;4991;43.566;27.820;2022-10-26T16:14:50;22.53;;;9.27;;
9904;SDS011;4991;43.566;27.820;2022-10-26T16:17:16;14.17;;;7.40;;
9904;SDS011;4991;43.566;27.820;2022-10-26T16:19:41;25.33;;;10.63;;
9904;SDS011;4991;43.566;27.820;2022-10-26T16:22:07;164.93;;;91.70;;
9904;SDS011;4991;43.566;27.820;2022-10-26T16:24:33;57.30;;;30.93;;
9904;SDS011;4991;43.566;27.820;2022-10-26T16:26:59;75.87;;;40.67;;
9904;SDS011;4991;43.566;27.820;2022-10-26T16:29:25;77.03;;;40.57;;
9904;SDS011;4991;43.566;27.820;2022-10-26T16:31:50;74.30;;;39.53;;
9904;SDS011;4991;43.566;27.820;2022-10-26T16:34:16;53.93;;;32.47;;
9904;SDS011;4991;43.566;27.820;2022-10-26T16:36:42;43.57;;;26.77;;
9904;SDS011;4991;43.566;27.820;2022-10-26T16:39:09;33.50;;;18.70;;
9904;SDS011;4991;43.566;27.820;2022-10-26T16:41:37;21.97;;;11.30;;
9904;SDS011;4991;43.566;27.820;2022-10-26T16:44:03;18.80;;;10.27;;
9904;SDS011;4991;43.566;27.820;2022-10-26T16:46:28;24.63;;;11.37;;
9904;SDS011;4991;43.566;27.820;2022-10-26T16:48:54;26.17;;;13.13;;
9904;SDS011;4991;43.566;27.820;2022-10-26T16:51:20;24.23;;;12.23;;
9904;SDS011;4991;43.566;27.820;2022-10-26T16:53:51;23.80;;;12.10;;
9904;SDS011;4991;43.566;27.820;2022-10-26T16:56:19;21.07;;;10.73;;
9904;SDS011;4991;43.566;27.820;2022-10-26T16:58:47;21.97;;;11.63;;
9904;SDS011;4991;43.566;27.820;2022-10-26T17:01:13;23.57;;;12.37;;
9904;SDS011;4991;43.566;27.820;2022-10-26T17:03:43;25.07;;;12.70;;
9904;SDS011;4991;43.566;27.820;2022-10-26T17:06:10;31.27;;;11.87;;
9904;SDS011;4991;43.566;27.820;2022-10-26T17:08:36;24.53;;;10.53;;
9904;SDS011;4991;43.566;27.820;2022-10-26T17:11:04;17.03;;;9.90;;
9904;SDS011;4991;43.566;27.820;2022-10-26T17:13:38;19.00;;;12.87;;
9904;SDS011;4991;43.566;27.820;2022-10-26T17:16:10;17.73;;;8.60;;
9904;SDS011;4991;43.566;27.820;2022-10-26T17:18:43;12.90;;;6.37;;
9904;SDS011;4991;43.566;27.820;2022-10-26T17:21:11;11.27;;;6.73;;
9904;SDS011;4991;43.566;27.820;2022-10-26T17:23:39;12.43;;;6.93;;
9904;SDS011;4991;43.566;27.820;2022-10-26T17:26:05;9.97;;;5.93;;
9904;SDS011;4991;43.566;27.820;2022-10-26T17:28:33;7.60;;;5.80;;
9904;SDS011;4991;43.566;27.820;2022-10-26T17:31:06;11.10;;;6.43;;